createdAt,value
2018-04-11T00:00:15.503Z,28.70
2018-04-11T00:02:47.540Z,25.70
2018-04-11T00:05:17.966Z,28.20
2018-04-11T00:07:49.296Z,28.20
2018-04-11T00:10:21.251Z,26.60
2018-04-11T00:12:53.360Z,26.50
2018-04-11T00:15:22.965Z,26.70
2018-04-11T00:17:52.423Z,25.40
2018-04-11T00:20:23.816Z,26.40
2018-04-11T00:22:53.158Z,27.00
2018-04-11T00:25:24.417Z,27.00
2018-04-11T00:27:54.282Z,26.20
2018-04-11T00:30:23.762Z,26.70
2018-04-11T00:32:53.281Z,24.20
2018-04-11T00:35:22.957Z,23.40
2018-04-11T00:37:52.387Z,23.20
2018-04-11T00:40:24.894Z,25.10
2018-04-11T00:42:54.460Z,25.80
2018-04-11T00:45:23.961Z,25.10
2018-04-11T00:47:55.237Z,23.70
2018-04-11T00:50:26.109Z,28.00
2018-04-11T00:53:08.102Z,24.60
2018-04-11T00:55:38.335Z,25.70
2018-04-11T00:58:10.337Z,26.50
2018-04-11T01:00:42.590Z,26.50
2018-04-11T01:03:16.371Z,26.40
2018-04-11T01:11:05.913Z,26.60
2018-04-11T01:34:52.795Z,26.30
2018-04-11T01:37:31.437Z,24.90
2018-04-11T01:40:05.525Z,24.60
2018-04-11T01:45:13.983Z,27.30
2018-04-11T01:53:05.092Z,26.80
2018-04-11T01:55:43.997Z,26.40
2018-04-11T01:58:19.138Z,26.10
2018-04-11T02:06:02.407Z,27.10
2018-04-11T02:08:32.467Z,29.20
2018-04-11T02:11:20.238Z,27.20
2018-04-11T02:13:49.811Z,27.10
2018-04-11T02:21:34.586Z,28.00
2018-04-11T02:24:07.163Z,28.00
2018-04-11T02:26:38.747Z,28.70
2018-04-11T02:29:10.222Z,28.90
2018-04-11T02:31:40.129Z,30.00
2018-04-11T02:34:11.387Z,30.30
2018-04-11T02:36:42.889Z,31.60
2018-04-11T02:39:12.197Z,29.20
2018-04-11T02:41:41.495Z,29.10
2018-04-11T02:44:13.697Z,28.80
2018-04-11T02:46:42.831Z,28.70
2018-04-11T02:49:12.762Z,27.60
2018-04-11T02:51:42.549Z,27.70
2018-04-11T02:54:12.056Z,27.50
2018-04-11T02:56:41.411Z,27.00
2018-04-11T02:59:10.990Z,26.90
2018-04-11T03:01:40.627Z,27.30
2018-04-11T03:04:09.893Z,27.40
2018-04-11T03:06:39.240Z,28.50
2018-04-11T03:09:08.595Z,28.60
2018-04-11T03:11:37.692Z,28.80
2018-04-11T03:14:06.849Z,28.90
2018-04-11T03:16:36.546Z,28.50
2018-04-11T03:19:06.953Z,28.60
2018-04-11T03:21:36.305Z,29.70
2018-04-11T03:24:14.333Z,29.30
2018-04-11T03:26:43.361Z,31.70
2018-04-11T03:29:14.892Z,29.50
2018-04-11T03:34:22.203Z,30.00
2018-04-11T03:36:53.723Z,29.20
2018-04-11T03:39:25.485Z,32.50
2018-04-11T03:42:00.911Z,31.70
2018-04-11T03:44:32.084Z,31.50
2018-04-11T03:47:00.903Z,31.50
2018-04-11T03:49:30.297Z,30.30
2018-04-11T03:51:59.730Z,30.10
2018-04-11T03:54:28.968Z,30.90
2018-04-11T03:56:58.229Z,30.60
2018-04-11T03:59:27.328Z,31.30
2018-04-11T04:01:56.710Z,32.30
2018-04-11T04:04:26.188Z,31.40
2018-04-11T04:06:55.209Z,32.90
2018-04-11T04:09:23.969Z,32.90
2018-04-11T04:11:52.781Z,33.70
2018-04-11T04:14:33.780Z,33.30
2018-04-11T04:17:14.608Z,34.60
2018-04-11T04:22:50.686Z,32.90
2018-04-11T04:25:20.019Z,33.70
2018-04-11T04:27:50.148Z,34.00
2018-04-11T04:30:20.334Z,34.90
2018-04-11T04:32:50.283Z,34.90
2018-04-11T04:35:19.386Z,35.20
2018-04-11T04:37:48.264Z,33.80
2018-04-11T04:40:17.738Z,34.90
2018-04-11T04:42:47.489Z,34.90
2018-04-11T04:45:18.602Z,35.50
2018-04-11T04:47:47.741Z,35.50
2018-04-11T04:50:16.834Z,35.30
2018-04-11T04:52:46.324Z,34.70
2018-04-11T04:55:16.430Z,35.50
2018-04-11T04:57:45.719Z,36.30
2018-04-11T05:00:15.005Z,34.90
2018-04-11T05:02:44.343Z,35.50
2018-04-11T05:05:13.191Z,36.30
2018-04-11T05:07:42.922Z,37.50
2018-04-11T05:10:13.000Z,35.80
2018-04-11T05:12:42.351Z,36.90
2018-04-11T05:15:11.729Z,36.10
2018-04-11T05:17:40.992Z,37.50
2018-04-11T05:20:10.389Z,37.40
2018-04-11T05:22:40.316Z,37.70
2018-04-11T05:25:10.229Z,37.70
2018-04-11T05:27:39.029Z,38.00
2018-04-11T05:30:08.893Z,40.60
2018-04-11T05:32:38.422Z,38.20
2018-04-11T05:35:07.706Z,39.20
2018-04-11T05:37:37.020Z,39.10
2018-04-11T05:40:06.148Z,39.30
2018-04-11T05:42:35.571Z,38.30
2018-04-11T05:45:05.151Z,38.80
2018-04-11T05:47:35.625Z,39.20
2018-04-11T05:50:04.922Z,39.40
2018-04-11T05:52:34.402Z,38.50
2018-04-11T05:55:04.294Z,38.70
2018-04-11T05:57:33.613Z,39.10
2018-04-11T06:00:04.178Z,40.00
2018-04-11T06:02:33.603Z,40.00
2018-04-11T06:05:02.986Z,40.00
2018-04-11T06:07:32.045Z,40.20
2018-04-11T06:10:01.107Z,41.60
2018-04-11T06:12:30.230Z,40.30
2018-04-11T06:14:59.652Z,41.30
2018-04-11T06:17:29.232Z,41.70
2018-04-11T06:19:59.381Z,42.90
2018-04-11T06:22:28.497Z,42.90
2018-04-11T06:24:57.734Z,46.50
2018-04-11T06:27:27.647Z,48.40
2018-04-11T06:29:58.397Z,46.90
2018-04-11T06:32:27.727Z,46.80
2018-04-11T06:34:56.991Z,45.80
2018-04-11T06:37:27.751Z,45.40
2018-04-11T06:39:57.274Z,45.30
2018-04-11T06:42:26.509Z,45.20
2018-04-11T06:44:55.808Z,45.50
2018-04-11T06:47:24.926Z,45.30
2018-04-11T06:49:55.663Z,46.20
2018-04-11T06:52:25.170Z,44.60
2018-04-11T06:54:54.430Z,46.20
2018-04-11T06:57:23.745Z,44.90
2018-04-11T06:59:55.190Z,45.40
2018-04-11T07:02:24.845Z,45.40
2018-04-11T07:04:54.099Z,47.50
2018-04-11T07:07:24.231Z,46.50
2018-04-11T07:09:54.467Z,46.00
2018-04-11T07:12:23.512Z,46.20
2018-04-11T07:14:52.879Z,46.80
2018-04-11T07:17:22.169Z,47.80
2018-04-11T07:19:51.557Z,48.20
2018-04-11T07:22:21.741Z,47.10
2018-04-11T07:24:51.344Z,47.20
2018-04-11T07:27:21.117Z,48.60
2018-04-11T07:29:51.657Z,46.70
2018-04-11T07:32:21.945Z,48.80
2018-04-11T07:34:52.513Z,47.60
2018-04-11T07:37:22.430Z,47.90
2018-04-11T07:39:51.881Z,47.80
2018-04-11T07:42:21.455Z,48.80
2018-04-11T07:44:50.921Z,48.20
2018-04-11T07:47:20.202Z,48.90
2018-04-11T07:49:49.883Z,49.70
2018-04-11T07:52:21.642Z,49.50
2018-04-11T07:54:50.834Z,50.40
2018-04-11T07:57:19.932Z,50.70
2018-04-11T07:59:49.276Z,50.40
2018-04-11T08:02:18.595Z,51.00
2018-04-11T08:04:48.021Z,50.50
2018-04-11T08:07:17.208Z,50.30
2018-04-11T08:09:46.433Z,51.20
2018-04-11T08:12:15.781Z,52.20
2018-04-11T08:14:45.256Z,52.80
2018-04-11T08:17:14.308Z,53.80
2018-04-11T08:19:43.505Z,54.80
2018-04-11T08:22:13.424Z,55.20
2018-04-11T08:24:42.562Z,56.60
2018-04-11T08:27:12.304Z,54.90
2018-04-11T08:29:42.309Z,55.60
2018-04-11T08:32:11.749Z,55.60
2018-04-11T08:34:41.237Z,55.30
2018-04-11T08:37:10.612Z,54.80
2018-04-11T08:39:40.072Z,54.80
2018-04-11T08:42:09.565Z,55.50
2018-04-11T08:44:38.796Z,53.90
2018-04-11T08:47:08.080Z,55.50
2018-04-11T08:49:38.175Z,55.90
2018-04-11T08:52:10.459Z,55.50
2018-04-11T08:54:45.622Z,55.30
2018-04-11T08:57:18.701Z,55.70
2018-04-11T09:05:31.155Z,54.80
2018-04-11T09:08:01.439Z,54.50
2018-04-11T09:10:30.651Z,54.20
2018-04-11T09:13:01.372Z,52.90
2018-04-11T09:15:30.520Z,53.50
2018-04-11T09:17:59.993Z,53.60
2018-04-11T09:20:29.131Z,53.50
2018-04-11T09:22:58.596Z,53.90
2018-04-11T09:25:27.939Z,52.60
2018-04-11T09:27:57.185Z,53.50
2018-04-11T09:30:26.736Z,53.80
2018-04-11T09:32:56.247Z,54.80
2018-04-11T09:35:26.223Z,52.70
2018-04-11T09:37:56.462Z,54.20
2018-04-11T09:40:25.713Z,54.20
2018-04-11T09:42:55.322Z,54.40
2018-04-11T09:45:24.894Z,52.70
2018-04-11T09:47:54.133Z,53.00
2018-04-11T09:50:23.272Z,53.80
2018-04-11T09:52:52.397Z,53.00
2018-04-11T09:55:23.787Z,53.10
2018-04-11T09:57:54.134Z,52.60
2018-04-11T10:00:23.431Z,52.70
2018-04-11T10:02:58.335Z,53.20
2018-04-11T10:05:27.940Z,52.70
2018-04-11T10:07:57.431Z,52.70
2018-04-11T10:10:28.322Z,53.80
2018-04-11T10:12:57.935Z,53.70
2018-04-11T10:15:27.201Z,54.00
2018-04-11T10:17:57.458Z,53.90
2018-04-11T10:20:29.883Z,54.10
2018-04-11T10:22:59.377Z,54.20
2018-04-11T10:25:29.514Z,55.00
2018-04-11T10:27:58.779Z,54.90
2018-04-11T10:30:28.136Z,55.20
2018-04-11T10:32:57.982Z,55.90
2018-04-11T10:35:27.224Z,56.30
2018-04-11T10:37:56.808Z,56.30
2018-04-11T10:40:26.194Z,55.90
2018-04-11T10:42:56.012Z,56.60
2018-04-11T10:45:25.341Z,55.20
2018-04-11T10:47:54.867Z,55.70
2018-04-11T10:50:24.121Z,55.60
2018-04-11T10:52:53.573Z,54.40
2018-04-11T10:55:23.631Z,54.90
2018-04-11T10:57:53.878Z,53.30
2018-04-11T11:00:23.074Z,53.20
2018-04-11T11:02:52.354Z,53.50
2018-04-11T11:05:21.674Z,51.90
2018-04-11T11:07:50.909Z,51.40
2018-04-11T11:10:20.414Z,51.90
2018-04-11T11:12:49.847Z,51.80
2018-04-11T11:15:19.188Z,51.70
2018-04-11T11:17:48.455Z,51.10
2018-04-11T11:20:17.566Z,51.20
2018-04-11T11:22:47.329Z,51.60
2018-04-11T11:25:16.522Z,50.10
2018-04-11T11:27:46.084Z,51.20
2018-04-11T11:30:15.797Z,50.10
2018-04-11T11:32:44.939Z,49.60
2018-04-11T11:35:14.344Z,50.20
2018-04-11T11:37:44.012Z,49.60
2018-04-11T11:40:14.460Z,49.10
2018-04-11T11:42:43.767Z,49.10
2018-04-11T11:45:13.435Z,49.80
2018-04-11T11:47:42.905Z,49.80
2018-04-11T11:50:12.647Z,50.90
2018-04-11T11:52:42.125Z,49.30
2018-04-11T11:55:11.658Z,48.90
2018-04-11T11:57:42.406Z,50.30
2018-04-11T12:00:12.632Z,48.90
2018-04-11T12:02:42.060Z,48.80
2018-04-11T12:05:11.332Z,49.10
2018-04-11T12:07:40.806Z,48.80
2018-04-11T12:10:11.231Z,48.50
2018-04-11T12:12:40.713Z,48.70
2018-04-11T12:15:09.991Z,49.80
2018-04-11T12:17:39.385Z,48.40
2018-04-11T12:20:08.489Z,48.50
2018-04-11T12:22:38.039Z,47.40
2018-04-11T12:25:08.058Z,47.80
2018-04-11T12:27:37.722Z,47.90
2018-04-11T12:30:07.160Z,47.50
2018-04-11T12:32:36.440Z,48.10
2018-04-11T12:35:05.738Z,47.10
2018-04-11T12:37:35.300Z,47.40
2018-04-11T12:40:04.393Z,47.40
2018-04-11T12:42:33.431Z,47.00
2018-04-11T12:45:02.551Z,47.20
2018-04-11T12:47:31.835Z,47.40
2018-04-11T12:50:01.147Z,47.60
2018-04-11T12:52:30.428Z,47.40
2018-04-11T12:54:59.774Z,47.00
2018-04-11T12:57:29.453Z,46.70
2018-04-11T12:59:59.949Z,46.50
2018-04-11T13:02:29.688Z,47.30
2018-04-11T13:04:58.998Z,47.00
2018-04-11T13:07:29.398Z,46.90
2018-04-11T13:09:58.866Z,47.30
2018-04-11T13:12:28.962Z,47.30
2018-04-11T13:14:58.279Z,47.80
2018-04-11T13:17:27.528Z,47.70
2018-04-11T13:19:57.733Z,48.20
2018-04-11T13:22:27.057Z,48.20
2018-04-11T13:24:57.347Z,48.20
2018-04-11T13:27:26.637Z,48.20
2018-04-11T13:29:55.958Z,49.10
2018-04-11T13:32:25.319Z,48.80
2018-04-11T13:34:54.519Z,49.50
2018-04-11T13:37:24.378Z,50.00
2018-04-11T13:39:53.990Z,50.30
2018-04-11T13:42:23.514Z,50.90
2018-04-11T13:44:52.821Z,51.20
2018-04-11T13:47:22.467Z,50.50
2018-04-11T13:49:51.807Z,50.10
2018-04-11T13:52:21.506Z,50.40
2018-04-11T13:54:51.039Z,49.60
2018-04-11T13:57:20.382Z,48.50
2018-04-11T13:59:49.995Z,47.70
2018-04-11T14:02:20.141Z,47.60
2018-04-11T14:04:50.841Z,47.60
2018-04-11T14:07:19.944Z,47.50
2018-04-11T14:09:49.682Z,47.30
2018-04-11T14:12:19.319Z,47.40
2018-04-11T14:14:48.629Z,46.70
2018-04-11T14:17:18.034Z,46.20
2018-04-11T14:19:47.802Z,45.60
2018-04-11T14:22:17.249Z,44.90
2018-04-11T14:24:46.741Z,44.70
2018-04-11T14:27:15.891Z,44.50
2018-04-11T14:29:45.826Z,43.60
2018-04-11T14:32:15.790Z,44.10
2018-04-11T14:34:45.499Z,43.80
2018-04-11T14:37:15.221Z,42.40
2018-04-11T14:39:44.176Z,42.00
2018-04-11T14:42:13.743Z,43.00
2018-04-11T14:44:43.544Z,42.20
2018-04-11T14:47:12.901Z,43.10
2018-04-11T14:49:42.028Z,42.30
2018-04-11T14:52:11.267Z,42.80
2018-04-11T14:54:41.616Z,42.80
2018-04-11T14:57:10.922Z,42.70
2018-04-11T14:59:40.265Z,43.60
2018-04-11T15:02:09.531Z,42.90
2018-04-11T15:04:40.154Z,42.40
2018-04-11T15:07:11.026Z,43.60
2018-04-11T15:09:40.208Z,43.50
2018-04-11T15:12:09.801Z,43.50
2018-04-11T15:14:38.899Z,43.20
2018-04-11T15:17:08.386Z,43.10
2018-04-11T15:19:37.667Z,41.20
2018-04-11T15:22:07.461Z,42.20
2018-04-11T15:24:36.924Z,42.30
2018-04-11T15:27:07.320Z,42.20
2018-04-11T15:29:36.502Z,42.00
2018-04-11T15:32:05.888Z,42.30
2018-04-11T15:34:35.241Z,42.30
2018-04-11T15:37:04.491Z,40.60
2018-04-11T15:39:33.750Z,42.10
2018-04-11T15:42:03.300Z,40.60
2018-04-11T15:44:32.596Z,39.50
2018-04-11T15:47:01.687Z,40.00
2018-04-11T15:49:31.417Z,39.40
2018-04-11T15:52:00.897Z,39.30
2018-04-11T15:54:30.184Z,39.00
2018-04-11T15:57:00.314Z,38.50
2018-04-11T15:59:29.649Z,37.30
2018-04-11T16:01:58.865Z,37.20
2018-04-11T16:04:28.422Z,35.60
2018-04-11T16:06:58.755Z,35.50
2018-04-11T16:09:28.271Z,36.40
2018-04-11T16:11:57.593Z,36.10
2018-04-11T16:14:26.888Z,36.30
2018-04-11T16:16:56.672Z,35.30
2018-04-11T16:19:25.962Z,34.70
2018-04-11T16:21:55.451Z,34.10
2018-04-11T16:24:32.085Z,34.50
2018-04-11T16:27:01.355Z,34.40
2018-04-11T16:29:30.439Z,34.00
2018-04-11T16:31:59.736Z,34.10
2018-04-11T16:34:29.611Z,33.50
2018-04-11T16:36:59.055Z,33.10
2018-04-11T16:39:27.925Z,34.00
2018-04-11T16:41:57.194Z,33.80
2018-04-11T16:44:26.512Z,33.90
2018-04-11T16:46:56.040Z,32.80
2018-04-11T16:49:25.498Z,33.80
2018-04-11T16:51:55.441Z,33.60
2018-04-11T16:54:25.874Z,33.30
2018-04-11T16:56:54.917Z,33.00
2018-04-11T16:59:24.070Z,34.90
2018-04-11T17:01:53.399Z,33.70
2018-04-11T17:04:22.813Z,33.60
2018-04-11T17:06:52.126Z,34.30
2018-04-11T17:09:22.319Z,32.90
2018-04-11T17:11:52.862Z,33.40
2018-04-11T17:14:22.896Z,34.30
2018-04-11T17:16:54.259Z,32.90
2018-04-11T17:19:23.819Z,32.70
2018-04-11T17:22:04.647Z,34.60
2018-04-11T17:24:45.123Z,35.40
2018-04-11T17:27:26.482Z,33.60
2018-04-11T17:30:07.064Z,34.40
2018-04-11T17:32:36.726Z,36.80
2018-04-11T17:35:05.731Z,43.60
2018-04-11T17:37:35.065Z,39.20
2018-04-11T17:40:04.204Z,42.40
2018-04-11T17:42:33.467Z,48.60
2018-04-11T17:45:03.579Z,45.70
2018-04-11T17:47:33.064Z,47.90
2018-04-11T17:50:02.523Z,41.60
2018-04-11T17:52:31.882Z,43.20
2018-04-11T17:55:01.374Z,42.80
2018-04-11T17:57:30.476Z,46.40
2018-04-11T17:59:59.587Z,40.20
2018-04-11T18:02:29.884Z,38.80
2018-04-11T18:04:59.202Z,38.70
2018-04-11T18:07:28.271Z,35.40
2018-04-11T18:09:59.027Z,41.20
2018-04-11T18:12:29.118Z,39.80
2018-04-11T18:14:58.417Z,34.60
2018-04-11T18:17:27.690Z,33.60
2018-04-11T18:19:57.406Z,38.20
2018-04-11T18:22:26.756Z,31.40
2018-04-11T18:24:55.828Z,32.10
2018-04-11T18:27:25.973Z,30.90
2018-04-11T18:29:55.178Z,30.80
2018-04-11T18:32:24.491Z,33.00
2018-04-11T18:34:53.596Z,37.10
2018-04-11T18:37:23.043Z,37.20
2018-04-11T18:39:52.591Z,32.70
2018-04-11T18:42:22.121Z,33.30
2018-04-11T18:44:51.233Z,35.20
2018-04-11T18:47:20.662Z,36.20
2018-04-11T18:49:49.951Z,36.50
2018-04-11T18:52:19.247Z,38.00
2018-04-11T18:54:48.953Z,36.20
2018-04-11T18:57:18.188Z,31.20
2018-04-11T18:59:47.782Z,30.70
2018-04-11T19:02:17.795Z,36.70
2018-04-11T19:04:47.073Z,31.50
2018-04-11T19:07:16.219Z,34.60
2018-04-11T19:09:45.451Z,34.20
2018-04-11T19:12:15.814Z,35.80
2018-04-11T19:14:45.092Z,36.20
2018-04-11T19:17:14.186Z,35.90
2018-04-11T19:19:43.920Z,34.10
2018-04-11T19:22:13.202Z,36.30
2018-04-11T19:24:42.148Z,30.80
2018-04-11T19:27:11.700Z,32.60
2018-04-11T19:29:41.191Z,27.70
2018-04-11T19:32:10.542Z,29.60
2018-04-11T19:34:40.001Z,30.80
2018-04-11T19:37:09.875Z,30.90
2018-04-11T19:39:39.342Z,30.50
2018-04-11T19:42:09.116Z,29.70
2018-04-11T19:44:38.794Z,30.70
2018-04-11T19:47:08.270Z,31.40
2018-04-11T19:49:37.845Z,27.70
2018-04-11T19:52:07.294Z,27.60
2018-04-11T19:54:36.783Z,27.40
2018-04-11T19:57:06.598Z,25.40
2018-04-11T19:59:36.605Z,26.30
2018-04-11T20:02:12.402Z,26.50
2018-04-11T20:04:42.074Z,25.90
2018-04-11T20:07:11.719Z,25.90
2018-04-11T20:09:41.071Z,26.10
2018-04-11T20:12:10.449Z,27.80
2018-04-11T20:14:42.304Z,29.60
2018-04-11T20:17:12.167Z,29.20
2018-04-11T20:19:41.489Z,28.70
2018-04-11T20:22:11.610Z,28.90
2018-04-11T20:24:41.822Z,29.30
2018-04-11T20:27:11.277Z,29.00
2018-04-11T20:29:40.547Z,27.20
2018-04-11T20:32:10.231Z,28.30
2018-04-11T20:34:39.338Z,26.80
2018-04-11T20:37:09.286Z,28.60
2018-04-11T20:39:38.698Z,28.50
2018-04-11T20:42:07.793Z,31.40
2018-04-11T20:44:37.139Z,26.70
2018-04-11T20:47:06.544Z,29.20
2018-04-11T20:49:35.623Z,28.20
2018-04-11T20:52:04.877Z,27.70
2018-04-11T20:54:34.152Z,27.20
2018-04-11T20:57:04.101Z,29.00
2018-04-11T20:59:33.698Z,27.60
2018-04-11T21:02:02.818Z,28.30
2018-04-11T21:04:32.645Z,29.10
2018-04-11T21:07:02.009Z,29.00
2018-04-11T21:09:31.277Z,30.40
2018-04-11T21:12:00.565Z,29.90
2018-04-11T21:14:30.597Z,31.20
2018-04-11T21:17:01.727Z,27.80
2018-04-11T21:19:31.906Z,27.90
2018-04-11T21:22:02.565Z,29.70
2018-04-11T21:24:31.888Z,29.40
2018-04-11T21:27:02.174Z,29.90
2018-04-11T21:29:32.001Z,29.80
2018-04-11T21:32:01.015Z,29.20
2018-04-11T21:34:31.112Z,29.30
2018-04-11T21:37:00.356Z,28.90
2018-04-11T21:39:29.441Z,28.70
2018-04-11T21:41:59.560Z,29.50
2018-04-11T21:44:29.056Z,29.70
2018-04-11T21:46:58.376Z,30.80
2018-04-11T21:49:27.885Z,30.20
2018-04-11T21:51:57.381Z,29.50
2018-04-11T21:54:26.829Z,28.30
2018-04-11T21:56:56.243Z,29.10
2018-04-11T21:59:27.260Z,30.30
2018-04-11T22:01:57.351Z,28.50
2018-04-11T22:04:26.804Z,28.60
2018-04-11T22:06:56.338Z,28.50
2018-04-11T22:09:26.187Z,30.40
2018-04-11T22:11:55.438Z,29.60
2018-04-11T22:14:24.952Z,29.80
2018-04-11T22:16:54.328Z,29.10
2018-04-11T22:19:25.073Z,31.80
2018-04-11T22:21:54.793Z,34.00
2018-04-11T22:24:23.881Z,28.90
2018-04-11T22:26:53.236Z,30.00
2018-04-11T22:29:22.651Z,38.80
2018-04-11T22:31:51.994Z,34.00
2018-04-11T22:34:22.793Z,33.40
2018-04-11T22:36:52.471Z,33.50
2018-04-11T22:39:22.249Z,34.40
2018-04-11T22:41:51.529Z,39.20
2018-04-11T22:44:22.099Z,36.50
2018-04-11T22:46:51.593Z,37.80
2018-04-11T22:49:21.068Z,36.70
2018-04-11T22:51:50.961Z,43.50
2018-04-11T22:54:20.093Z,42.20
2018-04-11T22:56:49.433Z,43.70
2018-04-11T22:59:18.979Z,43.00
2018-04-11T23:01:50.443Z,43.40
2018-04-11T23:04:20.104Z,43.40
2018-04-11T23:06:49.563Z,43.90
2018-04-11T23:09:19.865Z,48.90
2018-04-11T23:11:49.773Z,50.30
2018-04-11T23:14:19.999Z,43.80
2018-04-11T23:16:49.295Z,48.50
2018-04-11T23:19:19.205Z,50.10
2018-04-11T23:21:49.559Z,52.30
2018-04-11T23:24:20.655Z,47.60
2018-04-11T23:26:51.409Z,51.60
2018-04-11T23:29:20.715Z,51.60
2018-04-11T23:31:50.169Z,52.30
2018-04-11T23:34:19.491Z,50.50
2018-04-11T23:36:48.837Z,50.20
2018-04-11T23:39:17.927Z,52.40
2018-04-11T23:41:47.064Z,52.50
2018-04-11T23:44:16.131Z,52.10
2018-04-11T23:46:45.808Z,50.10
2018-04-11T23:49:14.929Z,49.30
2018-04-11T23:51:44.754Z,49.90
2018-04-11T23:54:14.618Z,52.70
2018-04-11T23:56:44.037Z,51.60
2018-04-11T23:59:14.997Z,49.60
